Accueil
METAR-TAF:

METAR-TAF

Aéroports :

Albenga, Italie

Aéroport Riviera Airport

latitude: 44-03N, longitude: 008-07E, altitude: 45 m

Observation

Le bulletin a été fait il y a 46 minutes, à 08:50 UTC
Vent 13 kt de nord-est avec des rafales jusqu'à 23 kt
Température 24°C
Humidité 29%
Pression 1026 hPa
Visibilité 10 km ou plus
pas de nuages en-dessous de 1500 mètres et pas de cumulonimbus.

METAR: LIMG 190850Z 04013G23KT CAVOK 24/05 Q1026

Heure: 11:36 (09:36 UTC)


TAF: absent

Observations et prévisions météorologiques de plus de 4000 aéroports (messages METAR et TAF).

Les stations disponibles sont représentées par des disques jaunes et rouges sur la carte.

Passer la souris dessus pour voir le nom de la station.

Cliquer dessus pour voir les observations et prévisions météorologiques.

Pour changer de carte: cliquez sur les boutons verts avec une croix noire pour zoomer, sur le bouton vert avec un tiret pour effectuer un zoom arrière, ou sur les flèches vertes pour les cartes adjacentes.


METAR-TAF: